createdAt,value
2018-08-13T00:00:08.342Z,-51
2018-08-13T00:01:08.031Z,-51
2018-08-13T00:02:06.358Z,-51
2018-08-13T00:03:09.351Z,-50
2018-08-13T00:04:07.047Z,-50
2018-08-13T00:05:06.299Z,-50
2018-08-13T00:06:06.211Z,-51
2018-08-13T00:07:04.345Z,-50
2018-08-13T00:08:08.645Z,-50
2018-08-13T00:09:07.076Z,-50
2018-08-13T00:10:05.202Z,-50
2018-08-13T00:11:05.443Z,-50
2018-08-13T00:12:03.943Z,-50
2018-08-13T00:14:15.396Z,-51
2018-08-13T00:15:15.019Z,-51
2018-08-13T00:16:10.596Z,-50
2018-08-13T00:17:17.528Z,-50
2018-08-13T00:18:19.248Z,-52
2018-08-13T00:19:17.752Z,-50
2018-08-13T00:20:22.758Z,-51
2018-08-13T00:21:28.035Z,-51
2018-08-13T00:22:29.053Z,-51
2018-08-13T00:23:23.608Z,-51
2018-08-13T00:25:33.340Z,-51
2018-08-13T00:26:38.211Z,-51
2018-08-13T00:27:38.012Z,-51
2018-08-13T00:28:38.623Z,-51
2018-08-13T00:29:36.762Z,-51
2018-08-13T00:30:34.556Z,-51
2018-08-13T00:31:38.552Z,-52
2018-08-13T00:32:36.255Z,-51
2018-08-13T00:33:31.083Z,-51
2018-08-13T00:35:40.916Z,-51
2018-08-13T00:36:43.272Z,-50
2018-08-13T00:37:41.800Z,-51
2018-08-13T00:38:40.337Z,-50
2018-08-13T00:39:44.556Z,-51
2018-08-13T00:40:44.905Z,-50
2018-08-13T00:41:52.369Z,-50
2018-08-13T00:42:48.759Z,-50
2018-08-13T00:43:54.643Z,-50
2018-08-13T00:44:52.209Z,-50
2018-08-13T00:45:52.812Z,-50
2018-08-13T00:46:52.621Z,-50
2018-08-13T00:47:52.936Z,-51
2018-08-13T00:50:08.406Z,-51
2018-08-13T00:51:06.492Z,-51
2018-08-13T00:52:05.993Z,-51
2018-08-13T00:53:09.890Z,-51
2018-08-13T00:54:22.106Z,-51
2018-08-13T00:55:21.889Z,-51
2018-08-13T00:56:20.205Z,-51
2018-08-13T00:57:19.251Z,-51
2018-08-13T00:58:18.035Z,-51
2018-08-13T00:59:27.922Z,-52
2018-08-13T01:00:36.570Z,-51
2018-08-13T01:02:47.098Z,-51
2018-08-13T01:03:42.648Z,-50
2018-08-13T01:04:44.175Z,-50
2018-08-13T01:05:45.019Z,-50
2018-08-13T01:06:47.540Z,-50
2018-08-13T01:07:52.056Z,-50
2018-08-13T01:08:59.228Z,-50
2018-08-13T01:09:55.584Z,-50
2018-08-13T01:11:00.919Z,-50
2018-08-13T01:12:02.012Z,-50
2018-08-13T01:13:04.168Z,-50
2018-08-13T01:14:01.746Z,-50
2018-08-13T01:15:01.436Z,-50
2018-08-13T01:16:01.198Z,-51
2018-08-13T01:18:10.394Z,-51
2018-08-13T01:19:09.389Z,-50
2018-08-13T01:20:11.968Z,-51
2018-08-13T01:21:10.552Z,-50
2018-08-13T01:22:09.708Z,-50
2018-08-13T01:23:07.766Z,-51
2018-08-13T01:24:12.666Z,-50
2018-08-13T01:25:19.564Z,-50
2018-08-13T01:26:19.516Z,-51
2018-08-13T01:27:17.859Z,-51
2018-08-13T01:28:18.287Z,-50
2018-08-13T01:29:13.746Z,-50
2018-08-13T01:30:14.354Z,-51
2018-08-13T01:31:11.630Z,-51
2018-08-13T01:32:10.303Z,-51
2018-08-13T01:34:30.234Z,-51
2018-08-13T01:35:29.172Z,-51
2018-08-13T01:36:28.063Z,-51
2018-08-13T01:37:26.722Z,-51
2018-08-13T01:38:24.518Z,-51
2018-08-13T01:39:27.180Z,-51
2018-08-13T01:40:22.101Z,-50
2018-08-13T01:41:23.255Z,-50
2018-08-13T01:42:21.057Z,-51
2018-08-13T01:43:24.299Z,-50
2018-08-13T01:44:27.270Z,-50
2018-08-13T01:45:23.063Z,-51
2018-08-13T01:47:28.990Z,-51
2018-08-13T01:48:31.310Z,-51
2018-08-13T01:49:28.246Z,-50
2018-08-13T01:50:30.886Z,-51
2018-08-13T01:51:26.014Z,-51
2018-08-13T01:52:42.474Z,-51
2018-08-13T01:53:40.279Z,-51
2018-08-13T01:54:37.876Z,-51
2018-08-13T01:55:44.264Z,-51
2018-08-13T01:58:07.890Z,-50
2018-08-13T01:59:07.791Z,-50
2018-08-13T02:00:07.980Z,-51
2018-08-13T02:01:12.308Z,-51
2018-08-13T02:02:15.475Z,-51
2018-08-13T02:03:17.485Z,-50
2018-08-13T02:04:17.732Z,-51
2018-08-13T02:05:25.246Z,-50
2018-08-13T02:06:23.240Z,-51
2018-08-13T02:07:21.648Z,-50
2018-08-13T02:08:22.701Z,-50
2018-08-13T02:10:36.476Z,-51
2018-08-13T02:11:38.400Z,-50
2018-08-13T02:12:40.883Z,-50
2018-08-13T02:13:42.946Z,-51
2018-08-13T02:14:39.968Z,-50
2018-08-13T02:15:40.811Z,-50
2018-08-13T02:16:39.974Z,-50
2018-08-13T02:17:38.005Z,-50
2018-08-13T02:18:33.152Z,-51
2018-08-13T02:20:45.216Z,-50
2018-08-13T02:21:46.576Z,-50
2018-08-13T02:22:47.473Z,-50
2018-08-13T02:23:46.832Z,-51
2018-08-13T02:24:45.618Z,-50
2018-08-13T02:25:45.651Z,-50
2018-08-13T02:26:44.355Z,-50
2018-08-13T02:27:41.974Z,-51
2018-08-13T02:28:39.594Z,-51
2018-08-13T02:29:39.445Z,-50
2018-08-13T02:31:48.895Z,-50
2018-08-13T02:32:55.250Z,-50
2018-08-13T02:33:53.478Z,-50
2018-08-13T02:34:51.836Z,-50
2018-08-13T02:35:52.428Z,-50
2018-08-13T02:36:56.736Z,-50
2018-08-13T02:37:56.706Z,-50
2018-08-13T02:38:54.786Z,-51
2018-08-13T02:39:57.412Z,-51
2018-08-13T02:41:09.038Z,-50
2018-08-13T02:42:07.596Z,-51
2018-08-13T02:43:09.712Z,-50
2018-08-13T02:44:07.693Z,-51
2018-08-13T02:45:03.157Z,-51
2018-08-13T02:46:00.996Z,-50
2018-08-13T02:48:16.117Z,-51
2018-08-13T02:49:12.156Z,-51
2018-08-13T02:50:13.393Z,-51
2018-08-13T02:51:10.659Z,-51
2018-08-13T02:52:11.150Z,-51
2018-08-13T02:53:07.535Z,-51
2018-08-13T02:54:10.618Z,-50
2018-08-13T02:55:12.748Z,-51
2018-08-13T02:56:12.165Z,-51
2018-08-13T02:57:07.355Z,-51
2018-08-13T02:58:11.226Z,-50
2018-08-13T02:59:10.373Z,-51
2018-08-13T03:01:23.925Z,-51
2018-08-13T03:02:24.597Z,-51
2018-08-13T03:03:24.478Z,-50
2018-08-13T03:04:28.817Z,-51
2018-08-13T03:05:27.942Z,-50
2018-08-13T03:06:28.257Z,-50
2018-08-13T03:07:28.656Z,-51
2018-08-13T03:08:32.258Z,-51
2018-08-13T03:09:32.808Z,-50
2018-08-13T03:10:34.822Z,-50
2018-08-13T03:11:45.147Z,-50
2018-08-13T03:12:40.811Z,-50
2018-08-13T03:13:39.217Z,-52
2018-08-13T03:14:43.611Z,-52
2018-08-13T03:15:41.297Z,-50
2018-08-13T03:16:38.998Z,-50
2018-08-13T03:17:36.956Z,-50
2018-08-13T03:18:37.195Z,-50
2018-08-13T03:20:52.046Z,-50
2018-08-13T03:21:54.605Z,-50
2018-08-13T03:23:01.203Z,-50
2018-08-13T03:24:02.945Z,-50
2018-08-13T03:25:03.874Z,-50
2018-08-13T03:26:06.319Z,-51
2018-08-13T03:27:05.168Z,-51
2018-08-13T03:28:08.763Z,-50
2018-08-13T03:29:07.331Z,-50
2018-08-13T03:30:05.549Z,-51
2018-08-13T03:31:04.684Z,-51
2018-08-13T03:32:06.584Z,-51
2018-08-13T03:33:05.918Z,-51
2018-08-13T03:34:01.930Z,-51
2018-08-13T03:35:03.209Z,-51
2018-08-13T03:36:04.352Z,-51
2018-08-13T03:38:14.968Z,-51
2018-08-13T03:39:10.602Z,-51
2018-08-13T03:40:11.334Z,-50
2018-08-13T03:41:11.318Z,-50
2018-08-13T03:42:14.122Z,-51
2018-08-13T03:43:13.988Z,-51
2018-08-13T03:44:13.482Z,-51
2018-08-13T03:45:13.699Z,-51
2018-08-13T03:46:11.960Z,-51
2018-08-13T03:47:07.152Z,-52
2018-08-13T03:48:16.061Z,-51
2018-08-13T03:49:10.880Z,-51
2018-08-13T03:51:30.640Z,-52
2018-08-13T03:52:29.322Z,-51
2018-08-13T03:53:28.781Z,-51
2018-08-13T03:54:29.010Z,-51
2018-08-13T03:55:23.712Z,-50
2018-08-13T03:56:26.246Z,-51
2018-08-13T03:57:28.527Z,-51
2018-08-13T03:58:30.375Z,-51
2018-08-13T03:59:26.748Z,-51
2018-08-13T04:00:36.014Z,-51
2018-08-13T04:01:36.879Z,-52
2018-08-13T04:02:35.087Z,-51
2018-08-13T04:03:38.485Z,-51
2018-08-13T04:04:43.703Z,-51
2018-08-13T04:05:47.808Z,-50
2018-08-13T04:06:51.686Z,-51
2018-08-13T04:07:49.176Z,-50
2018-08-13T04:08:43.937Z,-51
2018-08-13T04:10:59.068Z,-51
2018-08-13T04:12:03.743Z,-50
2018-08-13T04:13:02.883Z,-50
2018-08-13T04:14:03.878Z,-50
2018-08-13T04:15:04.082Z,-51
2018-08-13T04:16:04.641Z,-50
2018-08-13T04:17:03.632Z,-51
2018-08-13T04:17:23.396Z,-51
2018-08-13T04:18:20.785Z,-51
2018-08-13T04:19:20.261Z,-51
2018-08-13T04:20:15.555Z,-51
2018-08-13T04:21:16.506Z,-50
2018-08-13T04:23:26.475Z,-50
2018-08-13T04:24:25.572Z,-49
2018-08-13T04:25:29.635Z,-50
2018-08-13T04:26:30.189Z,-50
2018-08-13T04:27:30.279Z,-50
2018-08-13T04:28:35.579Z,-50
2018-08-13T04:29:30.056Z,-50
2018-08-13T04:30:30.367Z,-50
2018-08-13T04:31:32.692Z,-50
2018-08-13T04:32:30.368Z,-50
2018-08-13T04:33:30.926Z,-51
2018-08-13T04:34:29.024Z,-51
2018-08-13T04:35:30.321Z,-50
2018-08-13T04:37:35.411Z,-50
2018-08-13T04:38:46.237Z,-50
2018-08-13T04:39:42.804Z,-50
2018-08-13T04:40:44.593Z,-50
2018-08-13T04:41:40.248Z,-50
2018-08-13T04:42:43.248Z,-50
2018-08-13T04:43:43.444Z,-49
2018-08-13T04:44:50.323Z,-50
2018-08-13T04:45:58.252Z,-50
2018-08-13T04:47:01.020Z,-50
2018-08-13T04:48:10.022Z,-50
2018-08-13T04:49:08.821Z,-51
2018-08-13T04:50:10.027Z,-51
2018-08-13T04:51:13.679Z,-51
2018-08-13T04:52:17.244Z,-51
2018-08-13T04:53:14.866Z,-50
2018-08-13T04:55:33.319Z,-50
2018-08-13T04:56:31.021Z,-50
2018-08-13T04:57:46.317Z,-50
2018-08-13T04:58:45.027Z,-50
2018-08-13T04:59:41.835Z,-50
2018-08-13T05:00:50.246Z,-50
2018-08-13T05:01:48.692Z,-50
2018-08-13T05:02:47.336Z,-50
2018-08-13T05:03:45.994Z,-50
2018-08-13T05:04:46.765Z,-50
2018-08-13T05:06:56.421Z,-49
2018-08-13T05:07:54.429Z,-50
2018-08-13T05:08:53.000Z,-50
2018-08-13T05:09:53.182Z,-50
2018-08-13T05:10:51.610Z,-49
2018-08-13T05:11:51.017Z,-50
2018-08-13T05:12:50.395Z,-50
2018-08-13T05:13:51.091Z,-50
2018-08-13T05:14:46.168Z,-49
2018-08-13T05:15:48.154Z,-49
2018-08-13T05:16:42.785Z,-50
2018-08-13T05:17:41.650Z,-49
2018-08-13T05:19:46.580Z,-49
2018-08-13T05:20:55.297Z,-49
2018-08-13T05:21:54.359Z,-50
2018-08-13T05:23:02.347Z,-49
2018-08-13T05:23:57.452Z,-49
2018-08-13T05:24:56.196Z,-49
2018-08-13T05:26:02.055Z,-50
2018-08-13T05:27:06.866Z,-49
2018-08-13T05:28:11.588Z,-50
2018-08-13T05:29:10.986Z,-49
2018-08-13T05:31:17.605Z,-50
2018-08-13T05:32:24.873Z,-50
2018-08-13T05:33:27.353Z,-50
2018-08-13T05:34:27.047Z,-51
2018-08-13T05:35:28.122Z,-51
2018-08-13T05:36:27.620Z,-50
2018-08-13T05:37:32.843Z,-50
2018-08-13T05:38:27.308Z,-50
2018-08-13T05:39:24.863Z,-51
2018-08-13T05:40:24.654Z,-50
2018-08-13T05:42:34.144Z,-50
2018-08-13T05:43:32.749Z,-49
2018-08-13T05:44:36.244Z,-50
2018-08-13T05:45:34.373Z,-51
2018-08-13T05:46:32.362Z,-50
2018-08-13T05:47:36.751Z,-50
2018-08-13T05:48:41.357Z,-50
2018-08-13T05:49:40.050Z,-51
2018-08-13T05:50:35.672Z,-50
2018-08-13T05:51:38.671Z,-51
2018-08-13T05:52:36.428Z,-50
2018-08-13T05:54:44.574Z,-51
2018-08-13T05:55:43.759Z,-50
2018-08-13T05:56:44.696Z,-51
2018-08-13T05:57:48.321Z,-51
2018-08-13T05:58:45.946Z,-50
2018-08-13T05:59:43.861Z,-50
2018-08-13T06:00:42.336Z,-50
2018-08-13T06:01:41.735Z,-50
2018-08-13T06:02:46.565Z,-50
2018-08-13T06:03:49.551Z,-50
2018-08-13T06:04:42.378Z,-49
2018-08-13T06:06:49.536Z,-50
2018-08-13T06:07:47.756Z,-49
2018-08-13T06:08:49.208Z,-49
2018-08-13T06:09:45.323Z,-50
2018-08-13T06:10:47.229Z,-49
2018-08-13T06:11:45.843Z,-49
2018-08-13T06:12:51.766Z,-50
2018-08-13T06:13:48.896Z,-50
2018-08-13T06:14:49.644Z,-49
2018-08-13T06:15:46.925Z,-50
2018-08-13T06:16:48.846Z,-49
2018-08-13T06:19:08.916Z,-50
2018-08-13T06:20:11.101Z,-49
2018-08-13T06:21:10.021Z,-49
2018-08-13T06:22:13.233Z,-50
2018-08-13T06:23:13.321Z,-50
2018-08-13T06:24:12.395Z,-50
2018-08-13T06:25:19.573Z,-51
2018-08-13T06:26:37.925Z,-50
2018-08-13T06:27:41.151Z,-51
2018-08-13T06:28:39.782Z,-50
2018-08-13T06:29:42.126Z,-50
2018-08-13T06:30:43.426Z,-50
2018-08-13T06:31:41.360Z,-50
2018-08-13T06:32:38.967Z,-50
2018-08-13T06:33:36.454Z,-49
2018-08-13T06:35:42.832Z,-50
2018-08-13T06:36:46.715Z,-50
2018-08-13T06:37:42.695Z,-50
2018-08-13T06:38:44.284Z,-50
2018-08-13T06:39:39.336Z,-51
2018-08-13T06:40:40.246Z,-50
2018-08-13T06:41:42.822Z,-50
2018-08-13T06:42:43.525Z,-51
2018-08-13T06:43:47.299Z,-50
2018-08-13T06:44:43.246Z,-49
2018-08-13T06:45:55.124Z,-51
2018-08-13T06:46:56.489Z,-50
2018-08-13T06:47:55.389Z,-50
2018-08-13T06:50:16.183Z,-50
2018-08-13T06:51:30.711Z,-50
2018-08-13T06:52:33.206Z,-51
2018-08-13T06:53:34.881Z,-50
2018-08-13T06:54:32.866Z,-50
2018-08-13T06:55:35.443Z,-50
2018-08-13T06:56:36.512Z,-51
2018-08-13T06:57:38.298Z,-50
2018-08-13T06:58:36.284Z,-50
2018-08-13T06:59:34.155Z,-50
2018-08-13T07:00:34.885Z,-50
2018-08-13T07:01:30.756Z,-51
2018-08-13T07:03:38.716Z,-50
2018-08-13T07:04:37.039Z,-50
2018-08-13T07:05:35.720Z,-49
2018-08-13T07:06:37.329Z,-50
2018-08-13T07:07:41.236Z,-50
2018-08-13T07:08:42.429Z,-50
2018-08-13T07:09:37.813Z,-50
2018-08-13T07:10:45.830Z,-50
2018-08-13T07:11:44.209Z,-50
2018-08-13T07:12:42.545Z,-50
2018-08-13T07:15:00.636Z,-51
2018-08-13T07:16:03.917Z,-50
2018-08-13T07:17:01.675Z,-50
2018-08-13T07:18:02.486Z,-50
2018-08-13T07:19:07.450Z,-51
2018-08-13T07:20:10.297Z,-50
2018-08-13T07:21:12.597Z,-50
2018-08-13T07:22:10.864Z,-49
2018-08-13T07:23:11.267Z,-49
2018-08-13T07:24:24.444Z,-50
2018-08-13T07:25:24.653Z,-53
2018-08-13T07:27:33.058Z,-50
2018-08-13T07:28:42.226Z,-50
2018-08-13T07:29:46.800Z,-50
2018-08-13T07:30:44.787Z,-50
2018-08-13T07:31:44.867Z,-49
2018-08-13T07:32:45.551Z,-51
2018-08-13T07:33:44.199Z,-51
2018-08-13T07:34:44.344Z,-50
2018-08-13T07:35:42.624Z,-50
2018-08-13T07:36:40.290Z,-51
2018-08-13T07:37:44.012Z,-48
2018-08-13T07:38:39.059Z,-47
2018-08-13T07:39:39.745Z,-48
2018-08-13T07:41:51.292Z,-48
2018-08-13T07:42:56.834Z,-47
2018-08-13T07:43:55.438Z,-48
2018-08-13T07:44:58.460Z,-47
2018-08-13T07:45:57.573Z,-47
2018-08-13T07:46:57.644Z,-48
2018-08-13T07:47:57.329Z,-48
2018-08-13T07:48:55.252Z,-47
2018-08-13T07:49:53.931Z,-47
2018-08-13T07:50:54.327Z,-48
2018-08-13T07:52:00.884Z,-48
2018-08-13T07:54:17.653Z,-49
2018-08-13T07:55:15.557Z,-48
2018-08-13T07:56:15.055Z,-48
2018-08-13T07:57:17.108Z,-48
2018-08-13T07:58:16.226Z,-48
2018-08-13T07:59:24.405Z,-48
2018-08-13T08:00:24.006Z,-48
2018-08-13T08:01:24.693Z,-47
2018-08-13T08:02:25.300Z,-47
2018-08-13T08:03:23.423Z,-47
2018-08-13T08:04:18.628Z,-47
2018-08-13T08:05:19.920Z,-47
2018-08-13T08:07:44.196Z,-48
2018-08-13T08:08:40.978Z,-48
2018-08-13T08:09:44.756Z,-47
2018-08-13T08:10:45.296Z,-47
2018-08-13T08:11:47.874Z,-48
2018-08-13T08:12:49.606Z,-47
2018-08-13T08:13:49.842Z,-47
2018-08-13T08:14:48.231Z,-48
2018-08-13T08:15:45.963Z,-47
2018-08-13T08:16:43.988Z,-47
2018-08-13T08:18:50.793Z,-48
2018-08-13T08:19:49.381Z,-48
2018-08-13T08:20:52.534Z,-47
2018-08-13T08:22:00.756Z,-49
2018-08-13T08:23:05.504Z,-47
2018-08-13T08:24:05.045Z,-47
2018-08-13T08:25:03.638Z,-47
2018-08-13T08:26:06.996Z,-47
2018-08-13T08:27:09.888Z,-47
2018-08-13T08:28:11.997Z,-46
2018-08-13T08:29:06.576Z,-47
2018-08-13T08:31:11.139Z,-49
2018-08-13T08:32:14.191Z,-46
2018-08-13T08:33:18.844Z,-48
2018-08-13T08:34:17.272Z,-48
2018-08-13T08:35:23.300Z,-48
2018-08-13T08:36:26.535Z,-47
2018-08-13T08:37:24.124Z,-48
2018-08-13T08:38:27.394Z,-48
2018-08-13T08:39:23.045Z,-48
2018-08-13T08:40:24.754Z,-48
2018-08-13T08:42:36.236Z,-48
2018-08-13T08:43:41.321Z,-48
2018-08-13T08:44:39.351Z,-47
2018-08-13T08:45:44.788Z,-49
2018-08-13T08:46:43.096Z,-47
2018-08-13T08:47:41.298Z,-48
2018-08-13T08:48:40.018Z,-47
2018-08-13T08:49:38.563Z,-48
2018-08-13T08:50:40.421Z,-48
2018-08-13T08:51:48.718Z,-48
2018-08-13T08:52:44.980Z,-48
2018-08-13T08:53:50.528Z,-47
2018-08-13T08:54:46.443Z,-48
2018-08-13T08:57:01.518Z,-52
2018-08-13T08:58:00.454Z,-49
2018-08-13T08:59:00.264Z,-50
2018-08-13T08:59:59.514Z,-47
2018-08-13T09:01:01.133Z,-49
2018-08-13T09:01:55.958Z,-48
2018-08-13T09:02:57.673Z,-53
2018-08-13T09:04:00.470Z,-51
2018-08-13T09:04:59.251Z,-53
2018-08-13T09:07:12.347Z,-50
2018-08-13T09:08:16.504Z,-48
2018-08-13T09:09:16.732Z,-47
2018-08-13T09:10:15.886Z,-47
2018-08-13T09:11:14.911Z,-47
2018-08-13T09:12:16.463Z,-48
2018-08-13T09:13:21.200Z,-48
2018-08-13T09:14:23.002Z,-48
2018-08-13T09:15:23.570Z,-47
2018-08-13T09:16:29.220Z,-48
2018-08-13T09:17:32.263Z,-48
2018-08-13T09:18:36.005Z,-48
2018-08-13T09:20:49.397Z,-48
2018-08-13T09:21:49.600Z,-47
2018-08-13T09:22:50.663Z,-48
2018-08-13T09:23:49.450Z,-47
2018-08-13T09:24:53.273Z,-48
2018-08-13T09:25:50.688Z,-48
2018-08-13T09:26:45.616Z,-47
2018-08-13T09:27:51.660Z,-48
2018-08-13T09:28:47.373Z,-49
2018-08-13T09:29:49.997Z,-47
2018-08-13T09:30:48.717Z,-48
2018-08-13T09:31:51.117Z,-48
2018-08-13T09:32:48.856Z,-47
2018-08-13T09:34:55.442Z,-48
2018-08-13T09:35:52.003Z,-48
2018-08-13T09:36:57.853Z,-48
2018-08-13T09:38:12.096Z,-48
2018-08-13T09:39:11.236Z,-48
2018-08-13T09:40:09.787Z,-48
2018-08-13T09:41:07.267Z,-48
2018-08-13T09:42:05.503Z,-49
2018-08-13T09:43:00.288Z,-48
2018-08-13T09:45:08.646Z,-49
2018-08-13T09:46:08.486Z,-49
2018-08-13T09:47:08.708Z,-48
2018-08-13T09:48:13.791Z,-49
2018-08-13T09:49:15.050Z,-49
2018-08-13T09:50:20.395Z,-48
2018-08-13T09:51:21.179Z,-49
2018-08-13T09:52:22.400Z,-49
2018-08-13T09:53:24.490Z,-49
2018-08-13T09:54:21.382Z,-48
2018-08-13T09:55:19.623Z,-47
2018-08-13T09:57:27.614Z,-49
2018-08-13T09:58:25.461Z,-48
2018-08-13T09:59:28.968Z,-48
2018-08-13T10:00:38.190Z,-49
2018-08-13T10:01:35.774Z,-49
2018-08-13T10:02:41.177Z,-49
2018-08-13T10:03:39.569Z,-49
2018-08-13T10:04:40.450Z,-48
2018-08-13T10:05:38.444Z,-49
2018-08-13T10:06:42.558Z,-48
2018-08-13T10:08:54.764Z,-48
2018-08-13T10:09:57.124Z,-47
2018-08-13T10:10:55.932Z,-48
2018-08-13T10:11:55.783Z,-49
2018-08-13T10:12:51.031Z,-48
2018-08-13T10:13:49.141Z,-47
2018-08-13T10:14:51.078Z,-46
2018-08-13T10:15:52.497Z,-47
2018-08-13T10:16:53.207Z,-47
2018-08-13T10:17:50.589Z,-48
2018-08-13T10:18:48.283Z,-47
2018-08-13T10:19:50.672Z,-48
2018-08-13T10:20:52.630Z,-47
2018-08-13T10:21:59.852Z,-47
2018-08-13T10:23:01.231Z,-48
2018-08-13T10:24:01.844Z,-48
2018-08-13T10:24:56.931Z,-48
2018-08-13T10:25:56.796Z,-47
2018-08-13T10:26:54.505Z,-47
2018-08-13T10:28:59.836Z,-48
2018-08-13T10:30:02.690Z,-47
2018-08-13T10:31:01.739Z,-47
2018-08-13T10:32:05.002Z,-48
2018-08-13T10:33:00.725Z,-48
2018-08-13T10:33:59.391Z,-48
2018-08-13T10:34:58.644Z,-48
2018-08-13T10:35:59.084Z,-48
2018-08-13T10:36:58.757Z,-48
2018-08-13T10:37:56.553Z,-48
2018-08-13T10:38:54.623Z,-48
2018-08-13T10:39:57.741Z,-48
2018-08-13T10:40:57.922Z,-47
2018-08-13T10:41:57.155Z,-48
2018-08-13T10:42:55.322Z,-48
2018-08-13T10:45:11.689Z,-49
2018-08-13T10:46:11.500Z,-49
2018-08-13T10:47:11.136Z,-50
2018-08-13T10:48:14.705Z,-49
2018-08-13T10:49:13.058Z,-48
2018-08-13T10:50:12.413Z,-50
2018-08-13T10:51:07.619Z,-50
2018-08-13T10:52:11.158Z,-50
2018-08-13T10:53:08.902Z,-49
2018-08-13T10:54:08.044Z,-50
2018-08-13T10:55:10.460Z,-49
2018-08-13T10:56:08.695Z,-49
2018-08-13T10:57:03.833Z,-50
2018-08-13T10:59:11.343Z,-50
2018-08-13T11:00:10.243Z,-50
2018-08-13T11:01:09.344Z,-50
2018-08-13T11:02:09.805Z,-50
2018-08-13T11:03:18.433Z,-49
2018-08-13T11:04:19.737Z,-48
2018-08-13T11:05:20.866Z,-48
2018-08-13T11:05:48.143Z,-49
2018-08-13T11:06:47.335Z,-48
2018-08-13T11:07:49.648Z,-48
2018-08-13T11:08:49.156Z,-48
2018-08-13T11:09:51.389Z,-48
2018-08-13T11:10:49.166Z,-47
2018-08-13T11:11:52.823Z,-48
2018-08-13T11:14:04.886Z,-49
2018-08-13T11:15:05.176Z,-48
2018-08-13T11:16:03.095Z,-48
2018-08-13T11:17:05.677Z,-49
2018-08-13T11:18:05.584Z,-49
2018-08-13T11:19:03.296Z,-50
2018-08-13T11:20:01.260Z,-49
2018-08-13T11:20:59.120Z,-49
2018-08-13T11:21:57.950Z,-49
2018-08-13T11:22:52.865Z,-49
2018-08-13T11:25:01.775Z,-49
2018-08-13T11:25:59.475Z,-48
2018-08-13T11:26:59.552Z,-48
2018-08-13T11:28:05.558Z,-49
2018-08-13T11:29:03.584Z,-49
2018-08-13T11:30:01.755Z,-48
2018-08-13T11:31:02.650Z,-47
2018-08-13T11:32:00.958Z,-48
2018-08-13T11:33:00.319Z,-48
2018-08-13T11:34:02.130Z,-49
2018-08-13T11:35:02.050Z,-49
2018-08-13T11:35:58.345Z,-49
2018-08-13T11:38:06.456Z,-51
2018-08-13T11:39:15.040Z,-50
2018-08-13T11:40:17.484Z,-50
2018-08-13T11:41:23.493Z,-50
2018-08-13T11:42:21.333Z,-50
2018-08-13T11:43:25.360Z,-50
2018-08-13T11:44:24.458Z,-50
2018-08-13T11:45:27.587Z,-50
2018-08-13T11:46:27.014Z,-50
2018-08-13T11:47:24.594Z,-49
2018-08-13T11:48:21.989Z,-49
2018-08-13T11:49:19.519Z,-49
2018-08-13T11:50:25.608Z,-49
2018-08-13T11:52:48.139Z,-50
2018-08-13T11:53:51.141Z,-49
2018-08-13T11:54:52.857Z,-49
2018-08-13T11:55:56.308Z,-49
2018-08-13T11:57:00.131Z,-49
2018-08-13T11:58:09.898Z,-49
2018-08-13T11:59:04.740Z,-50
2018-08-13T12:00:05.414Z,-49
2018-08-13T12:01:05.866Z,-49
2018-08-13T12:02:08.280Z,-50
2018-08-13T12:03:03.198Z,-49
2018-08-13T12:04:07.363Z,-49
2018-08-13T12:05:03.007Z,-49
2018-08-13T12:06:08.812Z,-49
2018-08-13T12:08:23.088Z,-49
2018-08-13T12:09:22.718Z,-49
2018-08-13T12:10:20.962Z,-49
2018-08-13T12:11:20.310Z,-49
2018-08-13T12:12:21.528Z,-49
2018-08-13T12:13:20.629Z,-49
2018-08-13T12:14:22.307Z,-49
2018-08-13T12:15:21.271Z,-49
2018-08-13T12:16:20.552Z,-49
2018-08-13T12:17:22.302Z,-48
2018-08-13T12:18:26.831Z,-48
2018-08-13T12:19:21.952Z,-48
2018-08-13T12:20:25.489Z,-48
2018-08-13T12:21:21.349Z,-48
2018-08-13T12:22:31.756Z,-49
2018-08-13T12:23:34.315Z,-49
2018-08-13T12:24:33.073Z,-49
2018-08-13T12:26:45.530Z,-49
2018-08-13T12:27:44.917Z,-49
2018-08-13T12:28:51.869Z,-49
2018-08-13T12:29:49.268Z,-48
2018-08-13T12:30:47.072Z,-48
2018-08-13T12:31:44.294Z,-49
2018-08-13T12:32:44.486Z,-49
2018-08-13T12:33:43.902Z,-49
2018-08-13T12:34:44.195Z,-49
2018-08-13T12:35:38.971Z,-49
2018-08-13T12:36:40.006Z,-53
2018-08-13T12:37:38.507Z,-50
2018-08-13T12:38:38.852Z,-49
2018-08-13T12:39:36.599Z,-49
2018-08-13T12:40:40.767Z,-49
2018-08-13T12:42:48.078Z,-49
2018-08-13T12:43:54.696Z,-49
2018-08-13T12:44:59.451Z,-49
2018-08-13T12:45:57.746Z,-48
2018-08-13T12:46:59.283Z,-49
2018-08-13T12:48:05.545Z,-48
2018-08-13T12:49:03.526Z,-49
2018-08-13T12:50:03.052Z,-49
2018-08-13T12:51:04.055Z,-49
2018-08-13T12:51:59.186Z,-49
2018-08-13T12:53:00.640Z,-50
2018-08-13T12:53:58.384Z,-48
2018-08-13T12:54:56.468Z,-49
2018-08-13T12:55:51.502Z,-48
2018-08-13T12:56:53.287Z,-48
2018-08-13T12:57:51.652Z,-48
2018-08-13T12:58:47.802Z,-48
2018-08-13T13:01:09.009Z,-48
2018-08-13T13:02:14.646Z,-48
2018-08-13T13:03:16.996Z,-48
2018-08-13T13:04:19.235Z,-48
2018-08-13T13:05:22.914Z,-48
2018-08-13T13:06:21.029Z,-49
2018-08-13T13:07:22.161Z,-49
2018-08-13T13:08:25.389Z,-49
2018-08-13T13:09:23.682Z,-49
2018-08-13T13:10:24.150Z,-48
2018-08-13T13:11:31.842Z,-50
2018-08-13T13:12:29.491Z,-50
2018-08-13T13:13:27.863Z,-49
2018-08-13T13:14:26.871Z,-48
2018-08-13T13:15:24.822Z,-49
2018-08-13T13:16:24.029Z,-48
2018-08-13T13:17:22.997Z,-49
2018-08-13T13:18:21.079Z,-49
2018-08-13T13:20:28.626Z,-49
2018-08-13T13:21:27.903Z,-49
2018-08-13T13:22:30.022Z,-50
2018-08-13T13:23:28.029Z,-49
2018-08-13T13:24:26.044Z,-49
2018-08-13T13:25:30.137Z,-52
2018-08-13T13:26:27.687Z,-48
2018-08-13T13:27:25.754Z,-49
2018-08-13T13:28:25.159Z,-48
2018-08-13T13:29:23.948Z,-48
2018-08-13T13:31:33.378Z,-49
2018-08-13T13:32:35.521Z,-49
2018-08-13T13:33:33.089Z,-49
2018-08-13T13:34:32.774Z,-48
2018-08-13T13:35:32.799Z,-49
2018-08-13T13:36:31.251Z,-49
2018-08-13T13:37:41.615Z,-49
2018-08-13T13:38:39.733Z,-48
2018-08-13T13:39:34.459Z,-49
2018-08-13T13:40:36.843Z,-48
2018-08-13T13:41:35.755Z,-49
2018-08-13T13:42:37.597Z,-49
2018-08-13T13:44:47.427Z,-48
2018-08-13T13:45:51.704Z,-48
2018-08-13T13:46:49.310Z,-48
2018-08-13T13:47:46.996Z,-47
2018-08-13T13:48:47.200Z,-50
2018-08-13T13:49:51.787Z,-49
2018-08-13T13:50:52.139Z,-48
2018-08-13T13:51:52.807Z,-49
2018-08-13T13:52:50.855Z,-48
2018-08-13T13:53:56.858Z,-49
2018-08-13T13:54:55.090Z,-48
2018-08-13T13:57:16.081Z,-49
2018-08-13T13:58:17.783Z,-49
2018-08-13T13:59:15.378Z,-48
2018-08-13T14:00:12.941Z,-48
2018-08-13T14:01:14.304Z,-48
2018-08-13T14:02:11.963Z,-48
2018-08-13T14:03:09.789Z,-49
2018-08-13T14:04:09.256Z,-49
2018-08-13T14:05:13.860Z,-48
2018-08-13T14:07:30.127Z,-49
2018-08-13T14:08:31.581Z,-49
2018-08-13T14:09:30.200Z,-48
2018-08-13T14:10:31.677Z,-49
2018-08-13T14:11:29.282Z,-48
2018-08-13T14:12:26.911Z,-48
2018-08-13T14:13:27.440Z,-48
2018-08-13T14:14:21.911Z,-48
2018-08-13T14:15:23.308Z,-48
2018-08-13T14:16:29.493Z,-48
2018-08-13T14:17:30.447Z,-48
2018-08-13T14:18:39.231Z,-48
2018-08-13T14:19:37.609Z,-49
2018-08-13T14:20:38.022Z,-48
2018-08-13T14:22:49.477Z,-48
2018-08-13T14:23:48.955Z,-48
2018-08-13T14:24:48.498Z,-47
2018-08-13T14:25:48.529Z,-48
2018-08-13T14:26:44.716Z,-47
2018-08-13T14:27:45.264Z,-51
2018-08-13T14:28:45.229Z,-48
2018-08-13T14:29:43.665Z,-47
2018-08-13T14:30:39.393Z,-48
2018-08-13T14:31:42.231Z,-49
2018-08-13T14:32:39.746Z,-48
2018-08-13T14:33:37.561Z,-47
2018-08-13T14:34:35.633Z,-49
2018-08-13T14:35:34.311Z,-49
2018-08-13T14:36:34.148Z,-48
2018-08-13T14:37:30.091Z,-48
2018-08-13T14:38:31.784Z,-48
2018-08-13T14:39:31.780Z,-48
2018-08-13T14:40:27.153Z,-49
2018-08-13T14:41:26.128Z,-49
2018-08-13T14:42:25.766Z,-48
2018-08-13T14:43:27.522Z,-48
2018-08-13T14:44:26.640Z,-48
2018-08-13T14:45:26.257Z,-47
2018-08-13T14:46:25.455Z,-49
2018-08-13T14:47:26.827Z,-49
2018-08-13T14:48:25.199Z,-48
2018-08-13T14:50:32.187Z,-49
2018-08-13T14:51:31.719Z,-49
2018-08-13T14:52:30.623Z,-49
2018-08-13T14:53:28.906Z,-48
2018-08-13T14:54:31.362Z,-48
2018-08-13T14:55:31.653Z,-48
2018-08-13T14:56:29.915Z,-48
2018-08-13T14:57:32.615Z,-48
2018-08-13T14:58:30.356Z,-48
2018-08-13T14:59:26.801Z,-48
2018-08-13T15:01:43.256Z,-48
2018-08-13T15:02:45.447Z,-48
2018-08-13T15:03:43.136Z,-48
2018-08-13T15:04:43.132Z,-49
2018-08-13T15:05:49.439Z,-48
2018-08-13T15:06:51.248Z,-48
2018-08-13T15:07:51.924Z,-48
2018-08-13T15:08:52.939Z,-48
2018-08-13T15:09:55.316Z,-49